Latest Coastal Weather Observations for Rundle Island

IDQ60701

Issued at 3:13 am EST Monday 27 June 2016 (issued every 10 minutes, with the page automatically refreshed every 10 minutes)

About coastal observations | Map of coastal stations | Coastal observations for QLD | Marine services | Other Formats
Station Details ID: 039322 Name: RUNDLE ISLAND Lat: -23.53 Lon: 151.28 Height: 19.8 m
Data from the previous 72 hours. | See also: Recent months at Rundle Island
Date/Time
EST
Temp
°C
Wind Pressure Rain since
9am
mm
Weather Cloud Vis
km
Sea
Height
m
Swell
Dir  Spd
kts
Gust
kts
hPa Trend Height
m
Period
s
Dir
27/03:00am 18.7 S 4 9 1015.6 - - - - - - - - -
27/02:30am 19.3 E 3 4 1015.3 - - - - - - - - -
27/02:00am 19.3 ESE 3 4 1015.7 - - - - - - - - -
27/01:30am 19.1 ESE 4 5 1015.9 - - - - - - - - -
27/01:00am 19.1 ESE 4 5 1016.2 - - - - - - - - -
27/12:30am 19.1 SE 4 5 1016.6 - - - - - - - - -
27/12:00am 19.0 ESE 4 5 1016.6 - - - - - - - - -
 
Date/Time
EST
Temp
°C
Wind Pressure Rain since
9am
mm
Weather Cloud Vis
km
Sea
Height
m
Swell
Dir  Spd
kts
Gust
kts
hPa Trend Height
m
Period
s
Dir
26/11:30pm 19.0 SE 6 7 1016.8 - - - - - - - - -
26/11:00pm 19.0 ESE 6 7 1017.0 - - - - - - - - -
26/10:30pm 18.7 ESE 6 7 1017.0 - - - - - - - - -
26/10:00pm 18.8 SE 5 7 1017.5 - - - - - - - - -
26/09:30pm 18.7 SE 4 6 1017.9 - - - - - - - - -
26/09:00pm 18.7 SE 4 5 1018.1 - - - - - - - - -
26/08:30pm 18.6 SE 5 7 1018.2 - - - - - - - - -
26/08:00pm 18.7 SE 6 7 1018.1 - - - - - - - - -
26/07:30pm 18.6 SE 6 8 1018.0 - - - - - - - - -
26/07:00pm 18.7 SE 6 8 1017.8 - - - - - - - - -
26/06:30pm 18.4 ESE 6 8 1017.4 - - - - - - - - -
26/06:00pm 18.3 ESE 6 9 1016.9 - - - - - - - - -
26/05:30pm 18.2 ESE 7 9 1016.5 - - - - - - - - -
26/05:00pm 18.3 ESE 8 11 1016.2 - - - - - - - - -
26/04:30pm 18.4 ESE 9 11 1016.1 - - - - - - - - -
26/04:00pm 18.2 ESE 7 10 1016.4 - - - - - - - - -
26/03:30pm 18.0 ESE 7 9 1016.6 - - - - - - - - -
26/03:00pm 18.1 SE 6 9 1016.7 - - - - - - - - -
26/02:30pm 18.1 SE 7 8 1017.0 - - - - - - - - -
26/02:00pm 18.1 ESE 7 9 1017.1 - - - - - - - - -
26/01:30pm 17.6 SE 8 10 1017.1 - - - - - - - - -
26/01:00pm 17.2 SE 8 11 1017.7 - - - - - - - - -
26/12:30pm 17.5 SE 8 12 1018.3 - - - - - - - - -
26/12:00pm 16.6 SE 9 11 1018.8 - - - - - - - - -
26/11:30am 16.6 SSE 12 14 1019.2 - - - - - - - - -
26/11:00am 16.2 SSE 11 14 1019.6 - - - - - - - - -
26/10:30am 16.1 SSE 11 14 1020.1 - - - - - - - - -
26/10:00am 16.1 S 12 16 1020.2 - - - - - - - - -
26/09:30am 15.6 SSE 13 15 1020.2 - - - - - - - - -
26/09:00am 15.1 SSE 12 15 1020.1 - - - - - - - - -
26/08:30am 14.9 SSE 12 15 1020.2 - - - - - - - - -
26/08:00am 14.7 SSE 11 14 1020.0 - - - - - - - - -
26/07:30am 14.1 S 12 13 1019.8 - - - - - - - - -
26/07:00am 14.0 S 10 13 1019.6 - - - - - - - - -
26/06:30am 13.7 S 9 11 1019.3 - - - - - - - - -
26/06:00am 13.6 S 14 16 1019.0 - - - - - - - - -
26/05:30am 13.9 S 14 16 1018.8 - - - - - - - - -
26/05:00am 14.0 S 14 16 1018.6 - - - - - - - - -
26/04:30am 14.1 S 13 17 1018.1 - - - - - - - - -
26/04:00am 14.5 S 13 16 1018.0 - - - - - - - - -
26/03:30am 14.7 S 12 15 1018.1 - - - - - - - - -
26/03:00am 15.6 S 17 20 1018.1 - - - - - - - - -
26/02:30am 16.1 SSE 16 20 1018.0 - - - - - - - - -
26/02:00am 16.6 SSE 16 19 1017.7 - - - - - - - - -
26/01:30am 16.9 SSE 16 18 1017.7 - - - - - - - - -
26/01:00am 17.3 SSE 15 17 1018.2 - - - - - - - - -
26/12:30am 17.5 SE 14 16 1018.4 - - - - - - - - -
26/12:00am 17.0 S 10 11 1018.9 - - - - - - - - -
 
Date/Time
EST
Temp
°C
Wind Pressure Rain since
9am
mm
Weather Cloud Vis
km
Sea
Height
m
Swell
Dir  Spd
kts
Gust
kts
hPa Trend Height
m
Period
s
Dir
25/11:30pm 16.9 S 11 13 1019.3 - - - - - - - - -
25/11:00pm 17.7 S 11 13 1019.4 - - - - - - - - -
25/10:30pm 17.9 ESE 8 10 1019.3 - - - - - - - - -
25/10:00pm 18.0 SE 6 8 1019.3 - - - - - - - - -
25/09:30pm 17.9 ESE 6 8 1019.1 - - - - - - - - -
25/09:00pm 17.7 E 5 7 1018.8 - - - - - - - - -
25/08:30pm 17.3 E 4 5 1018.9 - - - - - - - - -
25/08:00pm 17.3 ESE 4 7 1018.9 - - - - - - - - -
25/07:30pm 17.3 ESE 5 7 1018.8 - - - - - - - - -
25/07:00pm 17.4 ENE 5 7 1018.5 - - - - - - - - -
25/06:30pm 17.4 ENE 5 6 1018.1 - - - - - - - - -
25/06:00pm 17.3 NE 4 6 1017.9 - - - - - - - - -
25/05:30pm 17.4 NNE 4 5 1018.0 - - - - - - - - -
25/05:00pm 17.7 NNE 3 5 1017.6 - - - - - - - - -
25/04:30pm 18.4 NNE 4 5 1017.4 - - - - - - - - -
25/04:00pm 18.0 ENE 5 6 1017.2 - - - - - - - - -
25/03:30pm 18.1 NE 4 6 1016.8 - - - - - - - - -
25/03:00pm 18.0 E 3 5 1016.5 - - - - - - - - -
25/02:30pm 17.4 ESE 7 9 1016.7 - - - - - - - - -
25/02:00pm 17.3 ESE 6 8 1017.1 - - - - - - - - -
25/01:30pm 17.4 SE 5 7 1017.3 - - - - - - - - -
25/01:00pm 16.9 SE 6 8 1017.8 - - - - - - - - -
25/12:30pm 16.9 SSE 5 7 1018.5 - - - - - - - - -
25/12:00pm 16.8 S 6 8 1018.9 - - - - - - - - -
25/11:30am 16.5 S 6 8 1019.3 - - - - - - - - -
25/11:00am 15.9 S 7 9 1019.5 - - - - - - - - -
25/10:30am 15.7 SSW 10 14 1019.8 - - - - - - - - -
25/10:00am 15.4 SSW 13 16 1019.7 - - - - - - - - -
25/09:30am 15.5 S 13 15 1020.0 - - - - - - - - -
25/09:00am 14.9 SSW 15 18 1019.8 - - - - - - - - -
25/08:30am 14.7 SSW 18 21 1019.3 - - - - - - - - -
25/08:00am 14.5 SSW 16 20 1019.1 - - - - - - - - -
25/07:30am 14.8 SSW 18 21 1018.8 - - - - - - - - -
25/07:00am 15.0 SSW 15 18 1018.5 - - - - - - - - -
25/06:30am 15.2 SSW 16 19 1018.1 - - - - - - - - -
25/06:00am 15.7 SSW 14 16 1017.9 - - - - - - - - -
25/05:30am 16.1 SSW 12 15 1017.5 - - - - - - - - -
25/05:00am 16.4 SSW 11 14 1017.2 - - - - - - - - -
25/04:30am 16.5 SSW 11 13 1017.0 - - - - - - - - -
25/04:00am 16.9 SSW 13 17 1016.6 - - - - - - - - -
25/03:30am 17.4 SSW 16 19 1016.3 - - - - - - - - -
25/03:00am 17.8 SSW 14 18 1016.3 - - - - - - - - -
25/02:30am 18.3 SSW 16 20 1016.0 - - - - - - - - -
25/02:00am 18.9 SSW 18 23 1016.1 - - - - - - - - -
25/01:30am 19.5 SW 16 18 1016.0 - - - - - - - - -
25/01:00am 20.2 SW 15 17 1016.1 - - - - - - - - -
25/12:30am 19.9 SW 8 10 1015.9 - - - - - - - - -
25/12:00am 19.9 SW 8 10 1015.6 - - - - - - - - -
 
Date/Time
EST
Temp
°C
Wind Pressure Rain since
9am
mm
Weather Cloud Vis
km
Sea
Height
m
Swell
Dir  Spd
kts
Gust
kts
hPa Trend Height
m
Period
s
Dir
24/11:30pm 21.1 WSW 10 12 1015.6 - - - - - - - - -
24/11:00pm 21.4 WNW 7 8 1015.2 - - - - - - - - -
24/10:30pm 21.5 NW 7 7 1015.1 - - - - - - - - -
24/10:00pm 21.6 WNW 7 7 1015.2 - - - - - - - - -
24/09:30pm 21.5 WNW 6 7 1015.1 - - - - - - - - -
24/09:00pm 21.7 WNW 5 5 1015.1 - - - - - - - - -
24/08:30pm 21.6 W 7 7 1015.0 - - - - - - - - -
24/08:00pm 22.2 W 7 7 1014.7 - - - - - - - - -
24/07:30pm 22.6 W 5 5 1014.5 - - - - - - - - -
24/07:00pm 22.5 WNW 6 7 1014.1 - - - - - - - - -
24/06:30pm 23.1 WNW 5 5 1013.7 - - - - - - - - -
24/06:00pm 23.1 WNW 7 7 1013.3 - - - - - - - - -
24/05:30pm 23.6 WNW 6 7 1012.8 - - - - - - - - -
24/05:00pm 23.9 W 6 7 1012.6 - - - - - - - - -
24/04:30pm 24.0 W 7 8 1012.3 - - - - - - - - -
24/04:00pm 24.2 WSW 10 12 1012.0 - - - - - - - - -
24/03:30pm 24.5 SW 15 16 1011.6 - - - - - - - - -
24/03:00pm 24.5 WSW 15 17 1011.5 - - - - - - - - -
24/02:44pm 25.3 WSW 15 20 1011.4 - - - - - - - - -
24/02:30pm 23.9 SSW 2 9 1011.7 - - - - - - - - -
24/02:00pm 22.8 NNW 7 8 1011.7 - - - - - - - - -
24/01:30pm 21.9 N 5 7 1011.9 - - - - - - - - -
24/01:00pm 22.2 NNW 8 9 1012.3 - - - - - - - - -
24/12:30pm 22.4 NNW 9 10 1012.7 - - - - - - - - -
24/12:00pm 22.2 NNW 8 9 1013.5 - - - - - - - - -
24/11:30am 21.9 NNW 9 11 1013.6 - - - - - - - - -
24/11:00am 22.1 NNW 7 8 1014.2 - - - - - - - - -
24/10:30am 21.8 NNW 6 6 1014.4 - - - - - - - - -
24/10:00am 21.7 NW 5 6 1014.7 - - - - - - - - -
24/09:30am 21.5 NW 5 6 1014.7 - - - - - - - - -
24/09:00am 20.9 NW 5 6 1014.8 - - - - - - - - -
24/08:30am 20.7 W 3 4 1014.4 - - - - - - - - -
24/08:00am 20.5 NW 2 3 1014.2 - - - - - - - - -
24/07:30am 20.5 NW 2 3 1013.9 - - - - - - - - -
24/07:00am 20.6 NW 1 2 1013.9 - - - - - - - - -
24/06:30am 20.6 NNW 2 3 1013.7 - - - - - - - - -
24/06:00am 20.4 N 1 2 1013.3 - - - - - - - - -
24/05:30am 20.2 CALM 0 0 1013.2 - - - - - - - - -
24/05:00am 20.1 CALM 0 0 1013.0 - - - - - - - - -
24/04:30am 20.0 SW 2 2 1013.0 - - - - - - - - -
24/04:00am 19.8 SW 2 3 1012.9 - - - - - - - - -
24/03:30am 20.1 WSW 3 4 1013.0 - - - - - - - - -

Other Formats:

Comma delimited format used in spreadsheet applications
http://www.bom.gov.au/fwo/IDQ60701/IDQ60701.94378.axf

JavaScript Object Notation format (JSON) in row-major order
http://www.bom.gov.au/fwo/IDQ60701/IDQ60701.94378.json